sensor_id;sensor_type;location;lat;lon;timestamp;temperature;humidity
20946;DHT22;10632;51.276;7.116;2022-07-12T00:01:49;15.90;99.90
20946;DHT22;10632;51.276;7.116;2022-07-12T00:04:16;15.80;99.90
20946;DHT22;10632;51.276;7.116;2022-07-12T00:06:43;15.80;99.90
20946;DHT22;10632;51.276;7.116;2022-07-12T00:09:10;15.70;99.90
20946;DHT22;10632;51.276;7.116;2022-07-12T00:11:38;15.70;99.90
20946;DHT22;10632;51.276;7.116;2022-07-12T00:14:06;15.50;99.90
20946;DHT22;10632;51.276;7.116;2022-07-12T00:16:34;15.50;99.90
20946;DHT22;10632;51.276;7.116;2022-07-12T00:19:01;15.40;99.90
20946;DHT22;10632;51.276;7.116;2022-07-12T00:21:29;15.30;99.90
20946;DHT22;10632;51.276;7.116;2022-07-12T00:23:56;15.30;99.90
20946;DHT22;10632;51.276;7.116;2022-07-12T00:26:24;15.20;99.90
20946;DHT22;10632;51.276;7.116;2022-07-12T00:28:54;15.10;99.90
20946;DHT22;10632;51.276;7.116;2022-07-12T00:31:28;15.10;99.90
20946;DHT22;10632;51.276;7.116;2022-07-12T00:33:55;15.00;99.90
20946;DHT22;10632;51.276;7.116;2022-07-12T00:36:23;15.00;99.90
20946;DHT22;10632;51.276;7.116;2022-07-12T00:38:50;14.90;99.90
20946;DHT22;10632;51.276;7.116;2022-07-12T00:41:17;14.90;99.90
20946;DHT22;10632;51.276;7.116;2022-07-12T00:43:46;14.80;99.90
20946;DHT22;10632;51.276;7.116;2022-07-12T00:46:35;14.90;99.90
20946;DHT22;10632;51.276;7.116;2022-07-12T00:49:04;14.80;99.90
20946;DHT22;10632;51.276;7.116;2022-07-12T00:51:33;14.80;99.90
20946;DHT22;10632;51.276;7.116;2022-07-12T00:54:00;14.80;99.90
20946;DHT22;10632;51.276;7.116;2022-07-12T00:56:29;14.80;99.90
20946;DHT22;10632;51.276;7.116;2022-07-12T00:59:04;14.80;99.90
20946;DHT22;10632;51.276;7.116;2022-07-12T01:01:31;14.80;99.90
20946;DHT22;10632;51.276;7.116;2022-07-12T01:04:03;14.80;99.90
20946;DHT22;10632;51.276;7.116;2022-07-12T01:06:31;14.80;99.90
20946;DHT22;10632;51.276;7.116;2022-07-12T01:08:58;14.80;99.90
20946;DHT22;10632;51.276;7.116;2022-07-12T01:11:25;14.80;99.90
20946;DHT22;10632;51.276;7.116;2022-07-12T01:13:53;14.80;99.90
20946;DHT22;10632;51.276;7.116;2022-07-12T01:16:22;14.80;99.90
20946;DHT22;10632;51.276;7.116;2022-07-12T01:18:51;14.80;99.90
20946;DHT22;10632;51.276;7.116;2022-07-12T01:21:22;14.80;99.90
20946;DHT22;10632;51.276;7.116;2022-07-12T01:23:51;14.80;99.90
20946;DHT22;10632;51.276;7.116;2022-07-12T01:26:20;14.80;99.90
20946;DHT22;10632;51.276;7.116;2022-07-12T01:28:47;14.80;99.90
20946;DHT22;10632;51.276;7.116;2022-07-12T01:31:15;14.80;99.90
20946;DHT22;10632;51.276;7.116;2022-07-12T01:33:42;14.80;99.90
20946;DHT22;10632;51.276;7.116;2022-07-12T01:36:11;14.70;99.90
20946;DHT22;10632;51.276;7.116;2022-07-12T01:38:41;14.70;99.90
20946;DHT22;10632;51.276;7.116;2022-07-12T01:41:12;14.70;99.90
20946;DHT22;10632;51.276;7.116;2022-07-12T01:43:39;14.70;99.90
20946;DHT22;10632;51.276;7.116;2022-07-12T01:46:06;14.70;99.90
20946;DHT22;10632;51.276;7.116;2022-07-12T01:48:33;14.70;99.90
20946;DHT22;10632;51.276;7.116;2022-07-12T01:51:02;14.70;99.90
20946;DHT22;10632;51.276;7.116;2022-07-12T01:53:30;14.70;99.90
20946;DHT22;10632;51.276;7.116;2022-07-12T01:55:57;14.70;99.90
20946;DHT22;10632;51.276;7.116;2022-07-12T01:58:33;14.70;99.90
20946;DHT22;10632;51.276;7.116;2022-07-12T02:01:00;14.70;99.90
20946;DHT22;10632;51.276;7.116;2022-07-12T02:03:27;14.70;99.90
20946;DHT22;10632;51.276;7.116;2022-07-12T02:05:55;14.70;99.90
20946;DHT22;10632;51.276;7.116;2022-07-12T02:08:22;14.70;99.90
20946;DHT22;10632;51.276;7.116;2022-07-12T02:10:51;14.80;99.90
20946;DHT22;10632;51.276;7.116;2022-07-12T02:13:20;14.70;99.90
20946;DHT22;10632;51.276;7.116;2022-07-12T02:15:51;14.70;99.90
20946;DHT22;10632;51.276;7.116;2022-07-12T02:18:18;14.70;99.90
20946;DHT22;10632;51.276;7.116;2022-07-12T02:20:45;14.80;99.90
20946;DHT22;10632;51.276;7.116;2022-07-12T02:23:11;14.80;99.90
20946;DHT22;10632;51.276;7.116;2022-07-12T02:25:38;14.80;99.90
20946;DHT22;10632;51.276;7.116;2022-07-12T02:28:06;14.80;99.90
20946;DHT22;10632;51.276;7.116;2022-07-12T02:30:34;14.80;99.90
20946;DHT22;10632;51.276;7.116;2022-07-12T02:33:05;14.80;99.90
20946;DHT22;10632;51.276;7.116;2022-07-12T02:35:32;14.90;99.90
20946;DHT22;10632;51.276;7.116;2022-07-12T02:37:59;14.90;99.90
20946;DHT22;10632;51.276;7.116;2022-07-12T02:40:26;14.90;99.90
20946;DHT22;10632;51.276;7.116;2022-07-12T02:43:10;14.90;99.90
20946;DHT22;10632;51.276;7.116;2022-07-12T02:45:38;14.90;99.90
20946;DHT22;10632;51.276;7.116;2022-07-12T02:48:06;14.90;99.90
20946;DHT22;10632;51.276;7.116;2022-07-12T02:50:37;14.90;99.90
20946;DHT22;10632;51.276;7.116;2022-07-12T02:53:04;14.90;99.90
20946;DHT22;10632;51.276;7.116;2022-07-12T02:55:31;14.90;99.90
20946;DHT22;10632;51.276;7.116;2022-07-12T02:58:00;14.90;99.90
20946;DHT22;10632;51.276;7.116;2022-07-12T03:00:27;14.90;99.90
20946;DHT22;10632;51.276;7.116;2022-07-12T03:02:54;15.00;99.90
20946;DHT22;10632;51.276;7.116;2022-07-12T03:05:22;15.00;99.90
20946;DHT22;10632;51.276;7.116;2022-07-12T03:07:49;15.00;99.90
20946;DHT22;10632;51.276;7.116;2022-07-12T03:10:16;15.10;99.90
20946;DHT22;10632;51.276;7.116;2022-07-12T03:12:43;15.00;99.90
20946;DHT22;10632;51.276;7.116;2022-07-12T03:15:10;15.10;99.90
20946;DHT22;10632;51.276;7.116;2022-07-12T03:17:37;15.10;99.90
20946;DHT22;10632;51.276;7.116;2022-07-12T03:20:05;15.10;99.90
20946;DHT22;10632;51.276;7.116;2022-07-12T03:22:35;15.10;99.90
20946;DHT22;10632;51.276;7.116;2022-07-12T03:25:03;15.10;99.90
20946;DHT22;10632;51.276;7.116;2022-07-12T03:27:30;15.10;99.90
20946;DHT22;10632;51.276;7.116;2022-07-12T03:30:00;15.00;99.90
20946;DHT22;10632;51.276;7.116;2022-07-12T03:32:27;14.90;99.90
20946;DHT22;10632;51.276;7.116;2022-07-12T03:34:54;14.80;99.90
20946;DHT22;10632;51.276;7.116;2022-07-12T03:37:21;14.80;99.90
20946;DHT22;10632;51.276;7.116;2022-07-12T03:39:50;14.80;99.90
20946;DHT22;10632;51.276;7.116;2022-07-12T03:42:17;14.80;99.90
20946;DHT22;10632;51.276;7.116;2022-07-12T03:44:44;14.80;99.90
20946;DHT22;10632;51.276;7.116;2022-07-12T03:47:13;14.90;99.90
20946;DHT22;10632;51.276;7.116;2022-07-12T03:49:40;14.90;99.90
20946;DHT22;10632;51.276;7.116;2022-07-12T03:52:10;14.80;99.90
20946;DHT22;10632;51.276;7.116;2022-07-12T03:54:37;14.80;99.90
20946;DHT22;10632;51.276;7.116;2022-07-12T03:57:05;14.70;99.90
20946;DHT22;10632;51.276;7.116;2022-07-12T03:59:41;14.60;99.90
20946;DHT22;10632;51.276;7.116;2022-07-12T04:02:09;14.50;99.90
20946;DHT22;10632;51.276;7.116;2022-07-12T04:04:36;14.40;99.90
20946;DHT22;10632;51.276;7.116;2022-07-12T04:07:03;14.30;99.90
20946;DHT22;10632;51.276;7.116;2022-07-12T04:09:31;14.20;99.90
20946;DHT22;10632;51.276;7.116;2022-07-12T04:11:57;14.20;99.90
20946;DHT22;10632;51.276;7.116;2022-07-12T04:14:26;14.10;99.90
20946;DHT22;10632;51.276;7.116;2022-07-12T04:16:54;14.10;99.90
20946;DHT22;10632;51.276;7.116;2022-07-12T04:19:21;14.00;99.90
20946;DHT22;10632;51.276;7.116;2022-07-12T04:21:49;14.00;99.90
20946;DHT22;10632;51.276;7.116;2022-07-12T04:24:16;14.00;99.90
20946;DHT22;10632;51.276;7.116;2022-07-12T04:26:43;13.90;99.90
20946;DHT22;10632;51.276;7.116;2022-07-12T04:29:10;13.90;99.90
20946;DHT22;10632;51.276;7.116;2022-07-12T04:31:38;13.90;99.90
20946;DHT22;10632;51.276;7.116;2022-07-12T04:34:05;13.90;99.90
20946;DHT22;10632;51.276;7.116;2022-07-12T04:36:32;13.90;99.90
20946;DHT22;10632;51.276;7.116;2022-07-12T04:39:03;13.90;99.90
20946;DHT22;10632;51.276;7.116;2022-07-12T04:41:30;13.90;99.90
20946;DHT22;10632;51.276;7.116;2022-07-12T04:43:56;13.80;99.90
20946;DHT22;10632;51.276;7.116;2022-07-12T04:46:24;13.90;99.90
20946;DHT22;10632;51.276;7.116;2022-07-12T04:48:52;13.90;99.90
20946;DHT22;10632;51.276;7.116;2022-07-12T04:51:19;13.90;99.90
20946;DHT22;10632;51.276;7.116;2022-07-12T04:53:46;13.90;99.90
20946;DHT22;10632;51.276;7.116;2022-07-12T04:56:12;13.90;99.90
20946;DHT22;10632;51.276;7.116;2022-07-12T04:58:39;13.90;99.90
20946;DHT22;10632;51.276;7.116;2022-07-12T05:01:06;14.00;99.90
20946;DHT22;10632;51.276;7.116;2022-07-12T05:03:34;14.10;99.90
20946;DHT22;10632;51.276;7.116;2022-07-12T05:06:03;14.10;99.90
20946;DHT22;10632;51.276;7.116;2022-07-12T05:08:29;14.20;99.90
20946;DHT22;10632;51.276;7.116;2022-07-12T05:10:57;14.20;99.90
20946;DHT22;10632;51.276;7.116;2022-07-12T05:13:23;14.40;99.90
20946;DHT22;10632;51.276;7.116;2022-07-12T05:15:50;14.40;99.90
20946;DHT22;10632;51.276;7.116;2022-07-12T05:18:17;14.50;99.90
20946;DHT22;10632;51.276;7.116;2022-07-12T05:20:44;14.60;99.90
20946;DHT22;10632;51.276;7.116;2022-07-12T05:23:13;14.60;99.90
20946;DHT22;10632;51.276;7.116;2022-07-12T05:25:39;14.70;99.90
20946;DHT22;10632;51.276;7.116;2022-07-12T05:28:06;14.80;99.90
20946;DHT22;10632;51.276;7.116;2022-07-12T05:30:33;14.80;99.90
20946;DHT22;10632;51.276;7.116;2022-07-12T05:33:00;14.80;99.90
20946;DHT22;10632;51.276;7.116;2022-07-12T05:35:27;14.90;99.90
20946;DHT22;10632;51.276;7.116;2022-07-12T05:37:54;14.90;99.90
20946;DHT22;10632;51.276;7.116;2022-07-12T05:40:22;14.90;99.90
20946;DHT22;10632;51.276;7.116;2022-07-12T05:42:49;15.00;99.90
20946;DHT22;10632;51.276;7.116;2022-07-12T05:45:16;15.00;99.90
20946;DHT22;10632;51.276;7.116;2022-07-12T05:47:43;15.00;99.90
20946;DHT22;10632;51.276;7.116;2022-07-12T05:50:10;15.00;99.90
20946;DHT22;10632;51.276;7.116;2022-07-12T05:52:37;15.00;99.90
20946;DHT22;10632;51.276;7.116;2022-07-12T05:55:28;15.00;99.90
20946;DHT22;10632;51.276;7.116;2022-07-12T05:57:55;15.00;99.90
20946;DHT22;10632;51.276;7.116;2022-07-12T06:00:22;15.00;99.90
20946;DHT22;10632;51.276;7.116;2022-07-12T06:02:49;15.10;99.90
20946;DHT22;10632;51.276;7.116;2022-07-12T06:05:16;15.10;99.90
20946;DHT22;10632;51.276;7.116;2022-07-12T06:07:43;15.20;99.90
20946;DHT22;10632;51.276;7.116;2022-07-12T06:10:10;15.20;99.90
20946;DHT22;10632;51.276;7.116;2022-07-12T06:12:38;15.20;99.90
20946;DHT22;10632;51.276;7.116;2022-07-12T06:15:06;15.30;99.90
20946;DHT22;10632;51.276;7.116;2022-07-12T06:17:33;15.30;99.90
20946;DHT22;10632;51.276;7.116;2022-07-12T06:20:00;15.40;99.90
20946;DHT22;10632;51.276;7.116;2022-07-12T06:22:27;15.50;99.90
20946;DHT22;10632;51.276;7.116;2022-07-12T06:24:54;15.50;99.90
20946;DHT22;10632;51.276;7.116;2022-07-12T06:27:21;15.60;99.90
20946;DHT22;10632;51.276;7.116;2022-07-12T06:29:50;15.70;99.90
20946;DHT22;10632;51.276;7.116;2022-07-12T06:32:17;15.80;99.90
20946;DHT22;10632;51.276;7.116;2022-07-12T06:34:44;15.90;99.90
20946;DHT22;10632;51.276;7.116;2022-07-12T06:37:11;16.00;99.90
20946;DHT22;10632;51.276;7.116;2022-07-12T06:39:39;16.20;99.90
20946;DHT22;10632;51.276;7.116;2022-07-12T06:42:07;16.30;99.90
20946;DHT22;10632;51.276;7.116;2022-07-12T06:44:34;16.40;99.90
20946;DHT22;10632;51.276;7.116;2022-07-12T06:47:02;16.50;99.90
20946;DHT22;10632;51.276;7.116;2022-07-12T06:49:29;16.60;99.90
20946;DHT22;10632;51.276;7.116;2022-07-12T06:51:56;16.70;99.90
20946;DHT22;10632;51.276;7.116;2022-07-12T06:54:23;16.90;99.90
20946;DHT22;10632;51.276;7.116;2022-07-12T06:56:51;17.00;99.90
20946;DHT22;10632;51.276;7.116;2022-07-12T06:59:18;17.20;99.90
20946;DHT22;10632;51.276;7.116;2022-07-12T07:01:45;17.30;99.90
20946;DHT22;10632;51.276;7.116;2022-07-12T07:04:13;17.40;99.90
20946;DHT22;10632;51.276;7.116;2022-07-12T07:06:40;17.50;99.90
20946;DHT22;10632;51.276;7.116;2022-07-12T07:09:07;17.60;99.90
20946;DHT22;10632;51.276;7.116;2022-07-12T07:11:34;17.70;99.90
20946;DHT22;10632;51.276;7.116;2022-07-12T07:14:02;17.90;99.90
20946;DHT22;10632;51.276;7.116;2022-07-12T07:16:29;18.00;99.90
20946;DHT22;10632;51.276;7.116;2022-07-12T07:18:56;18.10;99.90
20946;DHT22;10632;51.276;7.116;2022-07-12T07:21:25;18.10;99.90
20946;DHT22;10632;51.276;7.116;2022-07-12T07:23:52;18.20;99.90
20946;DHT22;10632;51.276;7.116;2022-07-12T07:26:19;18.30;99.90
20946;DHT22;10632;51.276;7.116;2022-07-12T07:28:46;18.40;99.90
20946;DHT22;10632;51.276;7.116;2022-07-12T07:31:33;18.40;99.90
20946;DHT22;10632;51.276;7.116;2022-07-12T07:34:01;18.40;99.90
20946;DHT22;10632;51.276;7.116;2022-07-12T07:36:29;18.40;99.90
20946;DHT22;10632;51.276;7.116;2022-07-12T07:38:57;18.50;99.90
20946;DHT22;10632;51.276;7.116;2022-07-12T07:41:24;18.50;99.90
20946;DHT22;10632;51.276;7.116;2022-07-12T07:43:51;18.50;99.90
20946;DHT22;10632;51.276;7.116;2022-07-12T07:46:18;18.50;99.90
20946;DHT22;10632;51.276;7.116;2022-07-12T07:48:45;18.60;99.90
20946;DHT22;10632;51.276;7.116;2022-07-12T07:51:13;18.70;99.90
20946;DHT22;10632;51.276;7.116;2022-07-12T07:53:41;18.70;99.90
20946;DHT22;10632;51.276;7.116;2022-07-12T07:56:08;18.80;99.90
20946;DHT22;10632;51.276;7.116;2022-07-12T07:58:35;18.90;99.90
20946;DHT22;10632;51.276;7.116;2022-07-12T08:01:02;18.90;99.90
20946;DHT22;10632;51.276;7.116;2022-07-12T08:03:29;18.90;99.90
20946;DHT22;10632;51.276;7.116;2022-07-12T08:05:56;19.00;99.90
20946;DHT22;10632;51.276;7.116;2022-07-12T08:08:24;19.00;99.90
20946;DHT22;10632;51.276;7.116;2022-07-12T08:10:52;19.10;99.90
20946;DHT22;10632;51.276;7.116;2022-07-12T08:13:19;19.20;99.90
20946;DHT22;10632;51.276;7.116;2022-07-12T08:15:46;19.20;99.90
20946;DHT22;10632;51.276;7.116;2022-07-12T08:18:13;19.30;99.90
20946;DHT22;10632;51.276;7.116;2022-07-12T08:20:41;19.40;99.90
20946;DHT22;10632;51.276;7.116;2022-07-12T08:23:08;19.50;99.90
20946;DHT22;10632;51.276;7.116;2022-07-12T08:25:35;19.50;99.90
20946;DHT22;10632;51.276;7.116;2022-07-12T08:28:04;19.60;99.90
20946;DHT22;10632;51.276;7.116;2022-07-12T08:30:31;19.60;99.90
20946;DHT22;10632;51.276;7.116;2022-07-12T08:32:58;19.60;99.90
20946;DHT22;10632;51.276;7.116;2022-07-12T08:35:25;19.60;99.90
20946;DHT22;10632;51.276;7.116;2022-07-12T08:37:52;19.70;99.90
20946;DHT22;10632;51.276;7.116;2022-07-12T08:40:19;19.80;99.90
20946;DHT22;10632;51.276;7.116;2022-07-12T08:42:46;19.90;99.90
20946;DHT22;10632;51.276;7.116;2022-07-12T08:45:15;20.00;99.90
20946;DHT22;10632;51.276;7.116;2022-07-12T08:47:42;20.10;99.90
20946;DHT22;10632;51.276;7.116;2022-07-12T08:50:11;20.20;99.90
20946;DHT22;10632;51.276;7.116;2022-07-12T08:52:39;20.20;99.90
20946;DHT22;10632;51.276;7.116;2022-07-12T08:55:16;20.30;99.90
20946;DHT22;10632;51.276;7.116;2022-07-12T08:57:44;20.40;99.90
20946;DHT22;10632;51.276;7.116;2022-07-12T09:00:12;20.60;99.90
20946;DHT22;10632;51.276;7.116;2022-07-12T09:02:51;20.70;99.90
20946;DHT22;10632;51.276;7.116;2022-07-12T09:05:22;20.80;99.90
20946;DHT22;10632;51.276;7.116;2022-07-12T09:07:50;20.90;99.90
20946;DHT22;10632;51.276;7.116;2022-07-12T09:10:17;20.90;99.90
20946;DHT22;10632;51.276;7.116;2022-07-12T09:12:45;20.90;99.90
20946;DHT22;10632;51.276;7.116;2022-07-12T09:15:16;20.80;99.90
20946;DHT22;10632;51.276;7.116;2022-07-12T09:17:56;20.80;99.90
20946;DHT22;10632;51.276;7.116;2022-07-12T09:20:25;20.90;99.90
20946;DHT22;10632;51.276;7.116;2022-07-12T09:22:53;21.00;99.90
20946;DHT22;10632;51.276;7.116;2022-07-12T09:25:20;21.10;99.90
20946;DHT22;10632;51.276;7.116;2022-07-12T09:27:52;21.30;99.90
20946;DHT22;10632;51.276;7.116;2022-07-12T09:30:20;21.40;99.90
20946;DHT22;10632;51.276;7.116;2022-07-12T09:32:57;21.50;99.90
20946;DHT22;10632;51.276;7.116;2022-07-12T09:35:42;21.60;99.90
20946;DHT22;10632;51.276;7.116;2022-07-12T09:38:27;21.60;99.90
20946;DHT22;10632;51.276;7.116;2022-07-12T09:40:56;21.70;99.90
20946;DHT22;10632;51.276;7.116;2022-07-12T09:43:23;21.70;99.90
20946;DHT22;10632;51.276;7.116;2022-07-12T09:45:50;21.70;99.90
20946;DHT22;10632;51.276;7.116;2022-07-12T09:48:21;21.80;99.90
20946;DHT22;10632;51.276;7.116;2022-07-12T09:50:49;21.80;99.90
20946;DHT22;10632;51.276;7.116;2022-07-12T09:53:21;21.90;99.90
20946;DHT22;10632;51.276;7.116;2022-07-12T09:55:52;22.00;99.90
20946;DHT22;10632;51.276;7.116;2022-07-12T09:58:23;22.00;99.90
20946;DHT22;10632;51.276;7.116;2022-07-12T10:00:51;22.10;99.90
20946;DHT22;10632;51.276;7.116;2022-07-12T10:03:22;22.30;99.90
20946;DHT22;10632;51.276;7.116;2022-07-12T10:05:53;22.40;99.90
20946;DHT22;10632;51.276;7.116;2022-07-12T10:08:21;22.40;99.90
20946;DHT22;10632;51.276;7.116;2022-07-12T10:10:49;22.60;99.90
20946;DHT22;10632;51.276;7.116;2022-07-12T10:13:19;22.70;99.90
20946;DHT22;10632;51.276;7.116;2022-07-12T10:15:47;22.80;99.90
20946;DHT22;10632;51.276;7.116;2022-07-12T10:18:17;22.90;99.90
20946;DHT22;10632;51.276;7.116;2022-07-12T10:20:48;22.90;99.90
20946;DHT22;10632;51.276;7.116;2022-07-12T10:23:32;23.00;99.90
20946;DHT22;10632;51.276;7.116;2022-07-12T10:29:04;23.40;99.90
20946;DHT22;10632;51.276;7.116;2022-07-12T10:31:33;23.60;99.90
20946;DHT22;10632;51.276;7.116;2022-07-12T10:34:15;23.80;99.90
20946;DHT22;10632;51.276;7.116;2022-07-12T10:37:10;23.90;99.90
20946;DHT22;10632;51.276;7.116;2022-07-12T10:39:37;24.00;99.90
20946;DHT22;10632;51.276;7.116;2022-07-12T10:42:13;24.10;99.90
20946;DHT22;10632;51.276;7.116;2022-07-12T10:44:40;24.20;99.90
20946;DHT22;10632;51.276;7.116;2022-07-12T10:47:10;24.30;99.90
20946;DHT22;10632;51.276;7.116;2022-07-12T10:49:46;24.40;99.90
20946;DHT22;10632;51.276;7.116;2022-07-12T10:52:16;24.60;99.90
20946;DHT22;10632;51.276;7.116;2022-07-12T10:55:16;24.80;99.90
20946;DHT22;10632;51.276;7.116;2022-07-12T10:57:38;24.90;99.90
20946;DHT22;10632;51.276;7.116;2022-07-12T11:00:07;25.00;99.90
20946;DHT22;10632;51.276;7.116;2022-07-12T11:02:34;25.00;99.90
20946;DHT22;10632;51.276;7.116;2022-07-12T11:05:01;25.00;99.90
20946;DHT22;10632;51.276;7.116;2022-07-12T11:07:30;25.10;99.90
20946;DHT22;10632;51.276;7.116;2022-07-12T11:09:58;25.20;99.90
20946;DHT22;10632;51.276;7.116;2022-07-12T11:12:27;25.40;99.90
20946;DHT22;10632;51.276;7.116;2022-07-12T11:14:55;25.60;99.90
20946;DHT22;10632;51.276;7.116;2022-07-12T11:17:25;25.70;99.90
20946;DHT22;10632;51.276;7.116;2022-07-12T11:20:06;25.70;99.90
20946;DHT22;10632;51.276;7.116;2022-07-12T11:22:37;25.70;99.90
20946;DHT22;10632;51.276;7.116;2022-07-12T11:25:06;25.80;99.90
20946;DHT22;10632;51.276;7.116;2022-07-12T11:27:34;25.90;99.90
20946;DHT22;10632;51.276;7.116;2022-07-12T11:30:03;25.90;99.20
20946;DHT22;10632;51.276;7.116;2022-07-12T11:32:34;25.90;97.90
20946;DHT22;10632;51.276;7.116;2022-07-12T11:35:02;26.00;99.10
20946;DHT22;10632;51.276;7.116;2022-07-12T11:37:29;26.10;98.50
20946;DHT22;10632;51.276;7.116;2022-07-12T11:39:58;26.20;98.20
20946;DHT22;10632;51.276;7.116;2022-07-12T11:42:25;26.20;98.70
20946;DHT22;10632;51.276;7.116;2022-07-12T11:44:52;26.30;99.10
20946;DHT22;10632;51.276;7.116;2022-07-12T11:47:20;26.40;99.40
20946;DHT22;10632;51.276;7.116;2022-07-12T11:49:51;26.40;98.30
20946;DHT22;10632;51.276;7.116;2022-07-12T11:52:19;26.40;98.30
20946;DHT22;10632;51.276;7.116;2022-07-12T11:54:47;26.50;98.10
20946;DHT22;10632;51.276;7.116;2022-07-12T11:57:19;26.60;98.40
20946;DHT22;10632;51.276;7.116;2022-07-12T11:59:46;26.70;98.60
20946;DHT22;10632;51.276;7.116;2022-07-12T12:02:14;26.80;98.80
20946;DHT22;10632;51.276;7.116;2022-07-12T12:04:46;26.70;99.50
20946;DHT22;10632;51.276;7.116;2022-07-12T12:07:13;26.50;99.30
20946;DHT22;10632;51.276;7.116;2022-07-12T12:10:12;26.50;99.40
20946;DHT22;10632;51.276;7.116;2022-07-12T12:12:44;26.60;99.50
20946;DHT22;10632;51.276;7.116;2022-07-12T12:15:13;26.70;98.50
20946;DHT22;10632;51.276;7.116;2022-07-12T12:17:46;26.80;98.50
20946;DHT22;10632;51.276;7.116;2022-07-12T12:20:15;26.80;98.90
20946;DHT22;10632;51.276;7.116;2022-07-12T12:22:43;26.90;98.50
20946;DHT22;10632;51.276;7.116;2022-07-12T12:25:11;27.00;99.40
20946;DHT22;10632;51.276;7.116;2022-07-12T12:27:45;27.20;98.80
20946;DHT22;10632;51.276;7.116;2022-07-12T12:30:14;27.20;99.00
20946;DHT22;10632;51.276;7.116;2022-07-12T12:32:46;27.10;98.50
20946;DHT22;10632;51.276;7.116;2022-07-12T12:35:15;26.80;98.20
20946;DHT22;10632;51.276;7.116;2022-07-12T12:37:51;26.70;98.60
20946;DHT22;10632;51.276;7.116;2022-07-12T12:40:20;26.60;98.20
20946;DHT22;10632;51.276;7.116;2022-07-12T12:42:49;26.70;98.70
20946;DHT22;10632;51.276;7.116;2022-07-12T12:45:20;26.60;98.90
20946;DHT22;10632;51.276;7.116;2022-07-12T12:47:54;26.70;98.60
20946;DHT22;10632;51.276;7.116;2022-07-12T12:50:44;26.80;99.30
20946;DHT22;10632;51.276;7.116;2022-07-12T12:53:13;27.00;98.70
20946;DHT22;10632;51.276;7.116;2022-07-12T12:55:41;27.10;98.20
20946;DHT22;10632;51.276;7.116;2022-07-12T12:58:12;27.20;97.30
20946;DHT22;10632;51.276;7.116;2022-07-12T13:00:41;27.30;97.10
20946;DHT22;10632;51.276;7.116;2022-07-12T13:03:10;27.30;97.10
20946;DHT22;10632;51.276;7.116;2022-07-12T13:05:37;27.30;97.00
20946;DHT22;10632;51.276;7.116;2022-07-12T13:08:08;27.40;97.20
20946;DHT22;10632;51.276;7.116;2022-07-12T13:10:35;27.40;97.00
20946;DHT22;10632;51.276;7.116;2022-07-12T13:13:03;27.40;96.30
20946;DHT22;10632;51.276;7.116;2022-07-12T13:15:32;27.40;96.40
20946;DHT22;10632;51.276;7.116;2022-07-12T13:17:59;27.50;96.80
20946;DHT22;10632;51.276;7.116;2022-07-12T13:20:27;27.50;96.10
20946;DHT22;10632;51.276;7.116;2022-07-12T13:22:55;27.50;96.30
20946;DHT22;10632;51.276;7.116;2022-07-12T13:25:22;27.40;96.40
20946;DHT22;10632;51.276;7.116;2022-07-12T13:27:50;27.30;97.10
20946;DHT22;10632;51.276;7.116;2022-07-12T13:30:18;27.40;97.30
20946;DHT22;10632;51.276;7.116;2022-07-12T13:32:47;27.40;96.80
20946;DHT22;10632;51.276;7.116;2022-07-12T13:35:14;27.40;97.00
20946;DHT22;10632;51.276;7.116;2022-07-12T13:37:43;27.40;96.50
20946;DHT22;10632;51.276;7.116;2022-07-12T13:40:10;27.30;96.20
20946;DHT22;10632;51.276;7.116;2022-07-12T13:42:39;27.30;96.40
20946;DHT22;10632;51.276;7.116;2022-07-12T13:45:08;27.20;96.40
20946;DHT22;10632;51.276;7.116;2022-07-12T13:47:37;27.10;96.70
20946;DHT22;10632;51.276;7.116;2022-07-12T13:50:06;27.10;96.90
20946;DHT22;10632;51.276;7.116;2022-07-12T13:52:34;27.00;96.70
20946;DHT22;10632;51.276;7.116;2022-07-12T13:55:01;27.10;96.90
20946;DHT22;10632;51.276;7.116;2022-07-12T13:57:28;27.00;97.00
20946;DHT22;10632;51.276;7.116;2022-07-12T13:59:57;27.00;97.10
20946;DHT22;10632;51.276;7.116;2022-07-12T14:02:24;27.00;97.50
20946;DHT22;10632;51.276;7.116;2022-07-12T14:04:52;27.00;97.20
20946;DHT22;10632;51.276;7.116;2022-07-12T14:07:20;27.00;97.30
20946;DHT22;10632;51.276;7.116;2022-07-12T14:09:47;27.00;97.30
20946;DHT22;10632;51.276;7.116;2022-07-12T14:12:17;27.00;97.20
20946;DHT22;10632;51.276;7.116;2022-07-12T14:14:44;27.00;97.00
20946;DHT22;10632;51.276;7.116;2022-07-12T14:17:29;26.90;97.30
20946;DHT22;10632;51.276;7.116;2022-07-12T14:19:55;27.00;97.40
20946;DHT22;10632;51.276;7.116;2022-07-12T14:22:24;27.00;97.20
20946;DHT22;10632;51.276;7.116;2022-07-12T14:24:51;27.00;97.40
20946;DHT22;10632;51.276;7.116;2022-07-12T14:27:18;27.00;96.90
20946;DHT22;10632;51.276;7.116;2022-07-12T14:29:44;27.00;96.30
20946;DHT22;10632;51.276;7.116;2022-07-12T14:32:11;27.00;96.80
20946;DHT22;10632;51.276;7.116;2022-07-12T14:34:41;27.00;96.60
20946;DHT22;10632;51.276;7.116;2022-07-12T14:37:08;26.90;96.40
20946;DHT22;10632;51.276;7.116;2022-07-12T14:39:37;26.90;96.70
20946;DHT22;10632;51.276;7.116;2022-07-12T14:42:04;26.80;96.80
20946;DHT22;10632;51.276;7.116;2022-07-12T14:44:31;26.90;97.00
20946;DHT22;10632;51.276;7.116;2022-07-12T14:46:57;26.90;97.10
20946;DHT22;10632;51.276;7.116;2022-07-12T14:49:26;26.90;96.60
20946;DHT22;10632;51.276;7.116;2022-07-12T14:51:57;26.90;96.40
20946;DHT22;10632;51.276;7.116;2022-07-12T14:54:26;26.80;96.40
20946;DHT22;10632;51.276;7.116;2022-07-12T14:56:59;26.80;96.30
20946;DHT22;10632;51.276;7.116;2022-07-12T14:59:26;26.80;96.20
20946;DHT22;10632;51.276;7.116;2022-07-12T15:01:58;26.80;95.90
20946;DHT22;10632;51.276;7.116;2022-07-12T15:04:49;26.80;95.90
20946;DHT22;10632;51.276;7.116;2022-07-12T15:07:18;26.70;96.00
20946;DHT22;10632;51.276;7.116;2022-07-12T15:09:48;26.70;96.00
20946;DHT22;10632;51.276;7.116;2022-07-12T15:12:17;26.60;96.10
20946;DHT22;10632;51.276;7.116;2022-07-12T15:14:44;26.60;96.20
20946;DHT22;10632;51.276;7.116;2022-07-12T15:17:11;26.60;95.70
20946;DHT22;10632;51.276;7.116;2022-07-12T15:19:45;26.60;95.90
20946;DHT22;10632;51.276;7.116;2022-07-12T15:22:13;26.60;96.10
20946;DHT22;10632;51.276;7.116;2022-07-12T15:24:40;26.70;96.10
20946;DHT22;10632;51.276;7.116;2022-07-12T15:27:13;26.70;95.70
20946;DHT22;10632;51.276;7.116;2022-07-12T15:29:41;26.80;95.90
20946;DHT22;10632;51.276;7.116;2022-07-12T15:32:10;26.80;95.70
20946;DHT22;10632;51.276;7.116;2022-07-12T15:34:40;26.80;95.70
20946;DHT22;10632;51.276;7.116;2022-07-12T15:37:13;26.80;95.50
20946;DHT22;10632;51.276;7.116;2022-07-12T15:39:45;26.70;95.30
20946;DHT22;10632;51.276;7.116;2022-07-12T15:42:12;26.60;95.50
20946;DHT22;10632;51.276;7.116;2022-07-12T15:44:54;26.60;95.70